createdAt,value
2023-05-26T00:00:17.067Z,9.44
2023-05-26T00:02:45.516Z,9.43
2023-05-26T00:05:17.939Z,9.44
2023-05-26T00:07:47.153Z,9.44
2023-05-26T00:10:15.830Z,9.45
2023-05-26T00:12:43.846Z,9.44
2023-05-26T00:15:12.059Z,9.44
2023-05-26T00:17:39.868Z,9.44
2023-05-26T00:20:11.966Z,9.43
2023-05-26T00:22:39.884Z,9.42
2023-05-26T00:25:10.241Z,9.39
2023-05-26T00:27:38.148Z,9.38
2023-05-26T00:30:06.942Z,9.36
2023-05-26T00:32:34.814Z,9.35
2023-05-26T00:35:04.264Z,9.33
2023-05-26T00:37:32.102Z,9.33
2023-05-26T00:40:01.978Z,9.28
2023-05-26T00:42:31.159Z,9.26
2023-05-26T00:44:59.018Z,9.26
2023-05-26T00:47:27.044Z,9.26
2023-05-26T00:49:55.001Z,9.26
2023-05-26T00:52:23.555Z,9.25
2023-05-26T00:54:52.280Z,9.24
2023-05-26T00:57:20.117Z,9.22
2023-05-26T00:59:50.768Z,9.22
2023-05-26T01:02:22.095Z,9.20
2023-05-26T01:04:53.711Z,9.18
2023-05-26T01:07:22.213Z,9.17
2023-05-26T01:09:51.828Z,9.14
2023-05-26T01:12:26.596Z,9.14
2023-05-26T01:15:03.220Z,9.12
2023-05-26T01:17:38.195Z,9.10
2023-05-26T01:20:27.606Z,9.06
2023-05-26T01:23:29.550Z,9.04
2023-05-26T01:26:22.207Z,9.02
2023-05-26T01:28:54.530Z,9.00
2023-05-26T01:31:22.913Z,8.98
2023-05-26T01:33:50.818Z,8.97
2023-05-26T01:36:18.702Z,8.95
2023-05-26T01:38:46.982Z,8.91
2023-05-26T01:41:28.482Z,8.87
2023-05-26T01:44:03.863Z,8.85
2023-05-26T01:46:37.345Z,8.83
2023-05-26T01:49:09.572Z,8.79
2023-05-26T01:51:41.116Z,8.77
2023-05-26T01:54:10.797Z,8.75
2023-05-26T01:56:39.623Z,8.72
2023-05-26T01:59:09.513Z,8.71
2023-05-26T02:01:37.377Z,8.68
2023-05-26T02:04:05.591Z,8.67
2023-05-26T02:06:33.667Z,8.66
2023-05-26T02:09:01.668Z,8.66
2023-05-26T02:11:29.809Z,8.63
2023-05-26T02:13:58.145Z,8.60
2023-05-26T02:16:29.118Z,8.56
2023-05-26T02:18:59.123Z,8.52
2023-05-26T02:21:27.081Z,8.50
2023-05-26T02:23:56.550Z,8.49
2023-05-26T02:26:24.371Z,8.47
2023-05-26T02:28:52.888Z,8.47
2023-05-26T02:31:21.557Z,8.44
2023-05-26T02:33:51.314Z,8.43
2023-05-26T02:36:19.290Z,8.40
2023-05-26T02:38:48.022Z,8.39
2023-05-26T02:41:17.284Z,8.38
2023-05-26T02:43:45.236Z,8.37
2023-05-26T02:46:15.062Z,8.37
2023-05-26T02:48:43.113Z,8.35
2023-05-26T02:51:12.348Z,8.35
2023-05-26T02:53:40.800Z,8.35
2023-05-26T02:56:09.286Z,8.35
2023-05-26T02:58:37.081Z,8.34
2023-05-26T03:01:04.971Z,8.32
2023-05-26T03:03:34.088Z,8.31
2023-05-26T03:06:02.102Z,8.31
2023-05-26T03:08:31.727Z,8.32
2023-05-26T03:11:09.553Z,8.31
2023-05-26T03:13:39.565Z,8.30
2023-05-26T03:16:08.074Z,8.26
2023-05-26T03:18:35.964Z,8.27
2023-05-26T03:21:07.253Z,8.27
2023-05-26T03:23:56.819Z,8.24
2023-05-26T03:26:24.750Z,8.22
2023-05-26T03:28:52.582Z,8.20
2023-05-26T03:31:22.110Z,8.17
2023-05-26T03:33:49.975Z,8.16
2023-05-26T03:36:19.126Z,8.15
2023-05-26T03:38:47.083Z,8.14
2023-05-26T03:41:16.300Z,8.10
2023-05-26T03:43:54.966Z,8.08
2023-05-26T03:46:23.299Z,8.06
2023-05-26T03:48:51.234Z,8.06
2023-05-26T03:51:19.099Z,8.06
2023-05-26T03:53:47.029Z,8.06
2023-05-26T03:56:17.715Z,8.06
2023-05-26T03:58:46.224Z,8.04
2023-05-26T04:01:14.077Z,8.03
2023-05-26T04:03:42.057Z,8.03
2023-05-26T04:06:11.539Z,8.03
2023-05-26T04:08:40.132Z,8.00
2023-05-26T04:11:08.072Z,8.01
2023-05-26T04:13:40.588Z,8.00
2023-05-26T04:16:08.701Z,8.00
2023-05-26T04:18:37.327Z,7.99
2023-05-26T04:21:05.366Z,7.99
2023-05-26T04:23:33.624Z,7.98
2023-05-26T04:26:02.047Z,7.96
2023-05-26T04:28:53.325Z,7.98
2023-05-26T04:31:42.135Z,8.00
2023-05-26T04:34:40.562Z,8.00
2023-05-26T04:37:18.148Z,8.02
2023-05-26T04:39:46.299Z,8.03
2023-05-26T04:42:14.144Z,8.04
2023-05-26T04:44:44.544Z,8.06
2023-05-26T04:47:12.723Z,8.07
2023-05-26T04:49:41.393Z,8.08
2023-05-26T04:52:10.470Z,8.09
2023-05-26T04:54:42.208Z,8.12
2023-05-26T04:57:10.787Z,8.14
2023-05-26T04:59:51.856Z,8.15
2023-05-26T05:02:20.114Z,8.20
2023-05-26T05:04:56.212Z,8.23
2023-05-26T05:07:24.111Z,8.24
2023-05-26T05:09:52.018Z,8.28
2023-05-26T05:12:20.441Z,8.29
2023-05-26T05:14:48.374Z,8.32
2023-05-26T05:17:18.077Z,8.37
2023-05-26T05:19:45.983Z,8.43
2023-05-26T05:22:14.228Z,8.49
2023-05-26T05:24:43.032Z,8.55
2023-05-26T05:27:11.591Z,8.62
2023-05-26T05:29:40.153Z,8.64
2023-05-26T05:32:09.482Z,8.71
2023-05-26T05:34:50.040Z,8.77
2023-05-26T05:37:18.192Z,8.80
2023-05-26T05:39:46.099Z,8.84
2023-05-26T05:42:14.413Z,8.85
2023-05-26T05:44:42.217Z,8.88
2023-05-26T05:47:10.595Z,8.89
2023-05-26T05:49:46.045Z,8.96
2023-05-26T05:52:15.821Z,8.98
2023-05-26T05:54:44.190Z,9.01
2023-05-26T05:57:12.237Z,9.04
2023-05-26T05:59:40.640Z,9.11
2023-05-26T06:02:09.198Z,9.19
2023-05-26T06:04:37.124Z,9.28
2023-05-26T06:07:05.429Z,9.31
2023-05-26T06:09:34.913Z,9.34
2023-05-26T06:12:03.104Z,9.38
2023-05-26T06:14:32.264Z,9.41
2023-05-26T06:17:00.175Z,9.40
2023-05-26T06:19:29.007Z,9.41
2023-05-26T06:21:58.056Z,9.42
2023-05-26T06:24:25.911Z,9.43
2023-05-26T06:26:55.185Z,9.44
2023-05-26T06:29:23.415Z,9.46
2023-05-26T06:31:51.357Z,9.49
2023-05-26T06:34:21.218Z,9.53
2023-05-26T06:36:51.229Z,9.58
2023-05-26T06:39:19.974Z,9.62
2023-05-26T06:41:48.171Z,9.69
2023-05-26T06:44:17.394Z,9.75
2023-05-26T06:46:46.565Z,9.77
2023-05-26T06:49:26.438Z,9.85
2023-05-26T06:51:58.631Z,9.89
2023-05-26T06:54:26.615Z,10.00
2023-05-26T06:56:56.608Z,10.04
2023-05-26T06:59:26.086Z,10.08
2023-05-26T07:01:54.013Z,10.15
2023-05-26T07:04:22.066Z,10.24
2023-05-26T07:06:49.928Z,10.28
2023-05-26T07:09:22.284Z,10.32
2023-05-26T07:11:57.434Z,10.38
2023-05-26T07:14:49.006Z,10.41
2023-05-26T07:17:16.853Z,10.44
2023-05-26T07:19:47.426Z,10.47
2023-05-26T07:22:15.468Z,10.49
2023-05-26T07:25:01.615Z,10.57
2023-05-26T07:27:39.000Z,10.62
2023-05-26T07:30:09.691Z,10.65
2023-05-26T07:32:49.118Z,10.73
2023-05-26T07:35:18.360Z,10.76
2023-05-26T07:37:46.171Z,10.83
2023-05-26T07:40:14.517Z,10.90
2023-05-26T07:42:43.700Z,10.96
2023-05-26T07:45:13.271Z,11.05
2023-05-26T07:47:41.714Z,11.14
2023-05-26T07:50:10.938Z,11.22
2023-05-26T07:52:38.898Z,11.24
2023-05-26T07:55:08.102Z,11.27
2023-05-26T07:57:36.027Z,11.25
2023-05-26T08:00:04.708Z,11.22
2023-05-26T08:02:42.607Z,11.23
2023-05-26T08:05:10.895Z,11.22
2023-05-26T08:07:38.730Z,11.26
2023-05-26T08:10:08.496Z,11.41
2023-05-26T08:12:36.549Z,11.51
2023-05-26T08:15:05.969Z,11.67
2023-05-26T08:17:33.880Z,11.79
2023-05-26T08:20:03.944Z,11.90
2023-05-26T08:22:31.852Z,12.00
2023-05-26T08:25:00.174Z,12.07
2023-05-26T08:27:28.170Z,12.21
2023-05-26T08:29:56.402Z,12.40
2023-05-26T08:32:25.134Z,12.63
2023-05-26T08:34:53.094Z,12.80
2023-05-26T08:37:22.308Z,12.92
2023-05-26T08:39:50.155Z,12.91
2023-05-26T08:42:30.372Z,12.94
2023-05-26T08:45:01.856Z,12.97
2023-05-26T08:47:31.169Z,13.10
2023-05-26T08:50:02.989Z,13.13
2023-05-26T08:52:32.364Z,13.20
2023-05-26T08:55:00.391Z,13.25
2023-05-26T08:57:31.438Z,13.32
2023-05-26T08:59:59.516Z,13.43
2023-05-26T09:02:28.928Z,13.60
2023-05-26T09:04:56.823Z,13.70
2023-05-26T09:07:27.150Z,13.77
2023-05-26T09:10:04.086Z,13.86
2023-05-26T09:12:37.491Z,13.95
2023-05-26T09:15:06.557Z,14.05
2023-05-26T09:17:37.418Z,14.14
2023-05-26T09:20:07.516Z,14.29
2023-05-26T09:22:35.718Z,14.42
2023-05-26T09:25:05.175Z,14.60
2023-05-26T09:27:33.082Z,14.74
2023-05-26T09:30:01.448Z,14.80
2023-05-26T09:32:30.779Z,14.89
2023-05-26T09:35:00.500Z,15.00
2023-05-26T09:37:30.332Z,15.17
2023-05-26T09:40:10.793Z,15.32
2023-05-26T09:42:39.784Z,15.39
2023-05-26T09:45:08.140Z,15.38
2023-05-26T09:47:36.635Z,15.52
2023-05-26T09:50:05.971Z,15.63
2023-05-26T09:52:34.872Z,15.72
2023-05-26T09:55:03.015Z,15.83
2023-05-26T09:57:34.180Z,15.95
2023-05-26T10:00:07.443Z,16.08
2023-05-26T10:02:36.469Z,16.21
2023-05-26T10:05:04.855Z,16.18
2023-05-26T10:07:33.161Z,16.17
2023-05-26T10:10:02.552Z,16.14
2023-05-26T10:12:33.397Z,16.21
2023-05-26T10:15:02.179Z,16.28
2023-05-26T10:17:31.574Z,16.42
2023-05-26T10:20:00.733Z,16.56
2023-05-26T10:22:34.141Z,16.68
2023-05-26T10:25:08.060Z,16.77
2023-05-26T10:27:46.513Z,16.79
2023-05-26T10:30:19.041Z,16.73
2023-05-26T10:32:48.808Z,16.59
2023-05-26T10:35:28.508Z,16.65
2023-05-26T10:38:13.368Z,16.74
2023-05-26T10:40:45.523Z,16.93
2023-05-26T10:43:21.540Z,16.97
2023-05-26T10:45:53.788Z,17.07
2023-05-26T10:48:21.932Z,17.22
2023-05-26T10:51:10.546Z,17.33
2023-05-26T10:53:43.188Z,17.49
2023-05-26T10:56:13.943Z,17.60
2023-05-26T10:58:47.858Z,17.68
2023-05-26T11:01:18.316Z,17.80
2023-05-26T11:03:48.399Z,17.77
2023-05-26T11:06:18.230Z,17.87
2023-05-26T11:08:47.865Z,18.02
2023-05-26T11:11:27.744Z,18.08
2023-05-26T11:14:04.399Z,18.16
2023-05-26T11:16:36.599Z,18.22
2023-05-26T11:19:06.099Z,18.21
2023-05-26T11:21:35.963Z,18.23
2023-05-26T11:24:05.892Z,18.18
2023-05-26T11:26:34.703Z,18.21
2023-05-26T11:29:05.211Z,18.30
2023-05-26T11:31:33.505Z,18.28
2023-05-26T11:34:01.961Z,18.31
2023-05-26T11:36:30.230Z,18.39
2023-05-26T11:39:00.345Z,18.44
2023-05-26T11:41:28.724Z,18.49
2023-05-26T11:43:57.594Z,18.56
2023-05-26T11:46:30.733Z,18.63
2023-05-26T11:48:59.224Z,18.70
2023-05-26T11:51:27.392Z,18.64
2023-05-26T11:53:56.768Z,18.65
2023-05-26T11:56:34.221Z,18.62
2023-05-26T11:59:02.310Z,18.69
2023-05-26T12:01:32.214Z,18.77
2023-05-26T12:04:01.515Z,18.81
2023-05-26T12:06:30.994Z,18.91
2023-05-26T12:09:00.639Z,18.92
2023-05-26T12:11:35.601Z,18.91
2023-05-26T12:14:05.283Z,18.99
2023-05-26T12:16:36.093Z,19.00
2023-05-26T12:19:06.256Z,19.07
2023-05-26T12:21:40.714Z,19.09
2023-05-26T12:24:09.197Z,19.20
2023-05-26T12:26:37.199Z,19.33
2023-05-26T12:29:10.188Z,19.42
2023-05-26T12:31:44.460Z,19.42
2023-05-26T12:34:13.556Z,19.44
2023-05-26T12:36:43.109Z,19.42
2023-05-26T12:39:15.282Z,19.55
2023-05-26T12:41:43.819Z,19.74
2023-05-26T12:44:11.705Z,19.91
2023-05-26T12:46:41.226Z,19.99
2023-05-26T12:49:10.902Z,19.92
2023-05-26T12:51:41.152Z,19.80
2023-05-26T12:54:10.251Z,19.75
2023-05-26T12:56:38.799Z,19.79
2023-05-26T12:59:18.449Z,19.90
2023-05-26T13:01:48.354Z,20.01
2023-05-26T13:04:20.101Z,20.20
2023-05-26T13:06:53.115Z,20.43
2023-05-26T13:09:21.979Z,20.58
2023-05-26T13:11:50.195Z,20.63
2023-05-26T13:14:18.571Z,20.69
2023-05-26T13:16:46.902Z,20.69
2023-05-26T13:19:14.946Z,20.77
2023-05-26T13:21:44.274Z,20.80
2023-05-26T13:24:12.499Z,20.83
2023-05-26T13:26:40.437Z,20.81
2023-05-26T13:29:11.590Z,20.68
2023-05-26T13:31:39.846Z,20.76
2023-05-26T13:34:07.676Z,20.92
2023-05-26T13:36:35.538Z,21.09
2023-05-26T13:39:05.224Z,21.23
2023-05-26T13:41:33.155Z,21.39
2023-05-26T13:46:29.047Z,21.64
2023-05-26T13:48:56.969Z,21.74
2023-05-26T13:51:24.826Z,21.63
2023-05-26T13:53:52.681Z,21.37
2023-05-26T13:56:26.849Z,21.16
2023-05-26T13:58:55.755Z,21.29
2023-05-26T14:01:36.043Z,21.47
2023-05-26T14:04:05.549Z,21.48
2023-05-26T14:06:36.347Z,21.20
2023-05-26T14:09:04.986Z,21.33
2023-05-26T14:11:34.444Z,21.50
2023-05-26T14:14:02.365Z,21.68
2023-05-26T14:16:30.274Z,21.66
2023-05-26T14:19:07.171Z,21.69
2023-05-26T14:22:06.287Z,21.75
2023-05-26T14:24:29.136Z,21.88
2023-05-26T14:26:58.409Z,22.05
2023-05-26T14:29:26.975Z,22.10
2023-05-26T14:31:54.928Z,22.09
2023-05-26T14:34:23.123Z,22.17
2023-05-26T14:39:18.765Z,22.23
2023-05-26T14:41:46.575Z,22.18
2023-05-26T14:44:16.044Z,22.24
2023-05-26T14:46:43.944Z,22.15
2023-05-26T14:49:11.867Z,22.22
2023-05-26T14:51:39.741Z,22.33
2023-05-26T14:54:07.996Z,22.47
2023-05-26T14:56:35.981Z,22.51
2023-05-26T14:59:04.206Z,22.49
2023-05-26T15:01:33.713Z,22.52
2023-05-26T15:06:37.140Z,22.48
2023-05-26T15:09:05.074Z,22.51
2023-05-26T15:11:33.157Z,22.60
2023-05-26T15:14:01.001Z,22.59
2023-05-26T15:16:28.931Z,22.60
2023-05-26T15:19:02.057Z,22.42
2023-05-26T15:21:38.152Z,22.50
2023-05-26T15:24:08.114Z,22.69
2023-05-26T15:26:36.538Z,22.60
2023-05-26T15:29:04.469Z,22.61
2023-05-26T15:31:32.364Z,22.47
2023-05-26T15:34:01.743Z,22.43
2023-05-26T15:36:29.643Z,22.51
2023-05-26T15:38:57.973Z,22.67
2023-05-26T15:41:29.135Z,22.67
2023-05-26T15:43:58.087Z,22.52
2023-05-26T15:46:26.222Z,22.37
2023-05-26T15:48:54.085Z,22.29
2023-05-26T15:51:23.279Z,22.29
2023-05-26T15:53:51.227Z,22.17
2023-05-26T15:56:19.176Z,22.21
2023-05-26T15:58:47.250Z,22.28
2023-05-26T16:01:15.275Z,22.17
2023-05-26T16:03:43.248Z,22.11
2023-05-26T16:06:11.796Z,21.89
2023-05-26T16:08:42.958Z,21.80
2023-05-26T16:11:10.830Z,21.81
2023-05-26T16:13:38.658Z,21.88
2023-05-26T16:16:07.286Z,21.82
2023-05-26T16:18:35.587Z,21.80
2023-05-26T16:21:03.654Z,21.73
2023-05-26T16:23:31.538Z,21.76
2023-05-26T16:26:01.344Z,21.71
2023-05-26T16:28:29.589Z,21.66
2023-05-26T16:30:58.066Z,21.47
2023-05-26T16:33:26.010Z,21.37
2023-05-26T16:35:56.444Z,21.36
2023-05-26T16:38:28.122Z,21.55
2023-05-26T16:40:56.121Z,21.79
2023-05-26T16:43:46.865Z,22.11
2023-05-26T16:46:13.154Z,22.50
2023-05-26T16:48:41.119Z,22.54
2023-05-26T16:51:09.007Z,22.51
2023-05-26T16:53:36.939Z,22.37
2023-05-26T16:56:04.877Z,22.07
2023-05-26T16:58:34.085Z,21.80
2023-05-26T17:01:01.990Z,21.54
2023-05-26T17:03:31.701Z,21.23
2023-05-26T17:05:59.724Z,20.92
2023-05-26T17:08:28.384Z,20.51
2023-05-26T17:10:57.536Z,20.22
2023-05-26T17:13:25.921Z,19.86
2023-05-26T17:15:55.345Z,19.57
2023-05-26T17:18:24.483Z,19.40
2023-05-26T17:20:52.393Z,19.33
2023-05-26T17:23:20.362Z,19.19
2023-05-26T17:25:48.193Z,19.01
2023-05-26T17:28:17.151Z,18.87
2023-05-26T17:30:45.024Z,18.73
2023-05-26T17:33:14.340Z,18.55
2023-05-26T17:35:42.243Z,18.38
2023-05-26T17:38:12.195Z,18.23
2023-05-26T17:40:40.715Z,18.15
2023-05-26T17:43:08.648Z,18.10
2023-05-26T17:45:36.642Z,18.09
2023-05-26T17:48:05.162Z,17.99
2023-05-26T17:50:35.763Z,17.82
2023-05-26T17:53:03.960Z,17.68
2023-05-26T17:55:31.856Z,17.64
2023-05-26T17:58:00.494Z,17.58
2023-05-26T18:00:28.664Z,17.56
2023-05-26T18:02:57.145Z,17.48
2023-05-26T18:05:25.467Z,17.37
2023-05-26T18:07:54.707Z,17.25
2023-05-26T18:10:22.908Z,17.16
2023-05-26T18:12:51.071Z,17.02
2023-05-26T18:15:19.020Z,16.91
2023-05-26T18:17:46.921Z,16.86
2023-05-26T18:20:14.990Z,16.80
2023-05-26T18:22:43.525Z,16.73
2023-05-26T18:25:12.943Z,16.63
2023-05-26T18:27:40.747Z,16.55
2023-05-26T18:30:11.152Z,16.48
2023-05-26T18:32:38.980Z,16.39
2023-05-26T18:35:08.918Z,16.33
2023-05-26T18:37:36.889Z,16.26
2023-05-26T18:40:06.333Z,16.24
2023-05-26T18:42:36.778Z,16.20
2023-05-26T18:45:05.129Z,16.15
2023-05-26T18:47:35.122Z,16.06
2023-05-26T18:50:03.842Z,16.00
2023-05-26T18:52:32.002Z,15.91
2023-05-26T18:54:59.956Z,15.85
2023-05-26T18:57:27.854Z,15.78
2023-05-26T18:59:57.158Z,15.70
2023-05-26T19:02:25.088Z,15.64
2023-05-26T19:04:53.062Z,15.56
2023-05-26T19:07:21.030Z,15.45
2023-05-26T19:09:49.018Z,15.37
2023-05-26T19:12:16.954Z,15.31
2023-05-26T19:14:44.914Z,15.25
2023-05-26T19:17:15.158Z,15.18
2023-05-26T19:19:43.277Z,15.12
2023-05-26T19:22:11.187Z,15.07
2023-05-26T19:24:39.106Z,15.00
2023-05-26T19:27:07.123Z,14.90
2023-05-26T19:29:34.991Z,14.82
2023-05-26T19:32:03.138Z,14.76
2023-05-26T19:34:32.403Z,14.68
2023-05-26T19:37:01.999Z,14.61
2023-05-26T19:39:30.653Z,14.53
2023-05-26T19:41:58.616Z,14.46
2023-05-26T19:44:26.489Z,14.38
2023-05-26T19:46:55.757Z,14.31
2023-05-26T19:49:23.747Z,14.24
2023-05-26T19:51:52.998Z,14.18
2023-05-26T19:54:21.011Z,14.13
2023-05-26T19:56:49.180Z,14.05
2023-05-26T19:59:17.102Z,13.96
2023-05-26T20:01:45.144Z,13.91
2023-05-26T20:04:16.005Z,13.86
2023-05-26T20:06:44.304Z,13.81
2023-05-26T20:09:13.564Z,13.74
2023-05-26T20:11:41.956Z,13.70
2023-05-26T20:14:09.790Z,13.64
2023-05-26T20:16:37.812Z,13.57
2023-05-26T20:19:05.715Z,13.50
2023-05-26T20:21:33.726Z,13.45
2023-05-26T20:24:01.765Z,13.41
2023-05-26T20:26:30.991Z,13.35
2023-05-26T20:28:58.874Z,13.27
2023-05-26T20:31:29.450Z,13.22
2023-05-26T20:33:57.692Z,13.15
2023-05-26T20:36:26.604Z,13.10
2023-05-26T20:38:54.795Z,13.04
2023-05-26T20:41:22.923Z,13.02
2023-05-26T20:43:52.282Z,12.97
2023-05-26T20:46:20.266Z,12.93
2023-05-26T20:48:48.239Z,12.88
2023-05-26T20:51:16.577Z,12.82
2023-05-26T20:53:47.765Z,12.76
2023-05-26T20:56:15.620Z,12.70
2023-05-26T20:58:43.515Z,12.64
2023-05-26T21:01:12.690Z,12.58
2023-05-26T21:03:40.628Z,12.51
2023-05-26T21:06:08.701Z,12.43
2023-05-26T21:08:36.622Z,12.36
2023-05-26T21:11:04.486Z,12.28
2023-05-26T21:13:32.361Z,12.20
2023-05-26T21:16:00.384Z,12.08
2023-05-26T21:18:30.199Z,12.01
2023-05-26T21:20:58.057Z,11.96
2023-05-26T21:23:26.121Z,11.87
2023-05-26T21:25:53.938Z,11.83
2023-05-26T21:28:21.791Z,11.77
2023-05-26T21:30:49.813Z,11.72
2023-05-26T21:33:17.676Z,11.70
2023-05-26T21:35:46.842Z,11.70
2023-05-26T21:38:14.750Z,11.66
2023-05-26T21:40:42.567Z,11.65
2023-05-26T21:43:10.401Z,11.63
2023-05-26T21:45:38.317Z,11.57
2023-05-26T21:48:06.367Z,11.55
2023-05-26T21:50:34.235Z,11.49
2023-05-26T21:53:03.417Z,11.45
2023-05-26T21:55:31.265Z,11.43
2023-05-26T21:57:59.140Z,11.39
2023-05-26T22:00:28.652Z,11.37
2023-05-26T22:06:36.375Z,11.28
2023-05-26T22:09:04.360Z,11.25
2023-05-26T22:11:32.209Z,11.23
2023-05-26T22:14:02.820Z,11.21
2023-05-26T22:16:35.422Z,11.17
2023-05-26T22:19:03.275Z,11.15
2023-05-26T22:21:31.200Z,11.13
2023-05-26T22:24:00.366Z,11.10
2023-05-26T22:26:28.210Z,11.05
2023-05-26T22:28:57.688Z,11.00
2023-05-26T22:31:25.694Z,10.95
2023-05-26T22:33:53.640Z,10.90
2023-05-26T22:36:21.478Z,10.85
2023-05-26T22:38:49.276Z,10.79
2023-05-26T22:41:18.491Z,10.78
2023-05-26T22:43:46.848Z,10.76
2023-05-26T22:46:14.749Z,10.73
2023-05-26T22:48:42.631Z,10.71
2023-05-26T22:51:10.624Z,10.67
2023-05-26T22:53:38.437Z,10.63
2023-05-26T22:56:14.063Z,10.60
2023-05-26T22:58:44.033Z,10.56
2023-05-26T23:01:11.889Z,10.53
2023-05-26T23:03:39.985Z,10.50
2023-05-26T23:06:07.970Z,10.49
2023-05-26T23:08:35.991Z,10.48
2023-05-26T23:11:03.928Z,10.45
2023-05-26T23:13:32.660Z,10.43
2023-05-26T23:16:01.914Z,10.39
2023-05-26T23:18:30.034Z,10.31
2023-05-26T23:20:57.879Z,10.17
2023-05-26T23:23:25.761Z,10.09
2023-05-26T23:25:53.966Z,10.00
2023-05-26T23:28:22.010Z,9.93
2023-05-26T23:30:49.809Z,9.90
2023-05-26T23:33:19.132Z,9.91
2023-05-26T23:35:46.950Z,9.88
2023-05-26T23:38:14.768Z,9.87
2023-05-26T23:40:42.574Z,9.88
2023-05-26T23:43:10.471Z,9.88
2023-05-26T23:45:38.613Z,9.86
2023-05-26T23:48:06.610Z,9.85
2023-05-26T23:50:36.792Z,9.85
2023-05-26T23:53:04.700Z,9.84
2023-05-26T23:55:32.509Z,9.82
2023-05-26T23:58:00.345Z,9.81
